createdAt,value
2023-05-05T00:02:01.730Z,101489.25
2023-05-05T00:04:28.636Z,101491.31
2023-05-05T00:06:54.928Z,101499.25
2023-05-05T00:09:21.480Z,101502.34
2023-05-05T00:11:47.839Z,101495.13
2023-05-05T00:14:14.183Z,101491.22
2023-05-05T00:16:40.552Z,101496.06
2023-05-05T00:19:07.068Z,101492.69
2023-05-05T00:21:33.353Z,101489.81
2023-05-05T00:23:59.625Z,101488.13
2023-05-05T00:26:25.919Z,101483.66
2023-05-05T00:28:52.239Z,101489.75
2023-05-05T00:31:18.547Z,101479.38
2023-05-05T00:33:44.911Z,101475.94
2023-05-05T00:36:11.313Z,101476.78
2023-05-05T00:38:37.997Z,101473.19
2023-05-05T00:41:04.408Z,101473.50
2023-05-05T00:43:30.711Z,101470.44
2023-05-05T00:46:02.310Z,101465.91
2023-05-05T00:48:31.851Z,101465.22
2023-05-05T00:50:58.718Z,101462.81
2023-05-05T00:53:26.452Z,101463.28
2023-05-05T00:55:53.227Z,101467.44
2023-05-05T00:58:19.545Z,101468.56
2023-05-05T01:00:45.892Z,101466.69
2023-05-05T01:03:15.209Z,101461.69
2023-05-05T01:06:00.180Z,101467.38
2023-05-05T01:08:49.513Z,101456.72
2023-05-05T01:11:48.048Z,101460.09
2023-05-05T01:14:16.615Z,101458.59
2023-05-05T01:16:55.997Z,101461.00
2023-05-05T01:19:40.791Z,101449.44
2023-05-05T01:22:08.820Z,101458.66
2023-05-05T01:25:04.246Z,101457.28
2023-05-05T01:27:39.405Z,101445.94
2023-05-05T01:30:24.543Z,101447.28
2023-05-05T01:32:52.218Z,101445.34
2023-05-05T01:35:20.572Z,101449.81
2023-05-05T01:38:02.917Z,101450.16
2023-05-05T01:40:31.824Z,101450.56
2023-05-05T01:43:00.543Z,101453.09
2023-05-05T01:45:29.303Z,101450.34
2023-05-05T01:47:56.238Z,101443.00
2023-05-05T01:50:23.032Z,101437.97
2023-05-05T01:52:50.332Z,101449.94
2023-05-05T01:55:18.315Z,101445.94
2023-05-05T01:57:45.366Z,101445.88
2023-05-05T02:00:12.228Z,101436.19
2023-05-05T02:02:39.185Z,101434.88
2023-05-05T02:05:06.504Z,101434.34
2023-05-05T02:07:33.571Z,101439.66
2023-05-05T02:10:01.327Z,101437.50
2023-05-05T02:12:29.763Z,101436.38
2023-05-05T02:14:57.924Z,101438.97
2023-05-05T02:17:25.329Z,101443.66
2023-05-05T02:19:52.410Z,101442.31
2023-05-05T02:22:18.950Z,101446.06
2023-05-05T02:24:45.323Z,101439.44
2023-05-05T02:27:11.972Z,101438.03
2023-05-05T02:29:44.701Z,101439.16
2023-05-05T02:32:14.283Z,101438.97
2023-05-05T02:34:42.028Z,101441.91
2023-05-05T02:37:11.085Z,101432.91
2023-05-05T02:39:43.430Z,101435.88
2023-05-05T02:42:13.023Z,101438.22
2023-05-05T02:44:42.160Z,101428.47
2023-05-05T02:47:08.725Z,101428.47
2023-05-05T02:49:35.195Z,101432.66
2023-05-05T02:52:01.566Z,101427.06
2023-05-05T02:54:28.253Z,101426.38
2023-05-05T02:56:57.194Z,101428.13
2023-05-05T02:59:33.438Z,101434.41
2023-05-05T03:02:21.783Z,101440.69
2023-05-05T03:04:54.065Z,101435.53
2023-05-05T03:07:46.776Z,101436.94
2023-05-05T03:10:15.034Z,101437.09
2023-05-05T03:13:00.816Z,101435.69
2023-05-05T03:15:37.658Z,101444.97
2023-05-05T03:18:04.295Z,101443.72
2023-05-05T03:20:31.091Z,101441.72
2023-05-05T03:22:57.564Z,101437.84
2023-05-05T03:25:41.057Z,101430.50
2023-05-05T03:28:07.353Z,101437.94
2023-05-05T03:30:33.694Z,101437.00
2023-05-05T03:33:00.064Z,101434.19
2023-05-05T03:35:26.386Z,101436.00
2023-05-05T03:37:52.733Z,101440.53
2023-05-05T03:40:19.055Z,101429.31
2023-05-05T03:42:45.480Z,101445.50
2023-05-05T03:45:12.232Z,101434.94
2023-05-05T03:47:38.556Z,101430.91
2023-05-05T03:50:05.214Z,101427.50
2023-05-05T03:52:31.799Z,101426.56
2023-05-05T03:54:59.936Z,101421.94
2023-05-05T03:57:26.810Z,101416.94
2023-05-05T03:59:54.000Z,101427.09
2023-05-05T04:02:20.407Z,101422.72
2023-05-05T04:04:46.789Z,101432.25
2023-05-05T04:07:13.101Z,101426.63
2023-05-05T04:09:44.317Z,101431.44
2023-05-05T04:12:11.108Z,101424.03
2023-05-05T04:14:37.449Z,101424.56
2023-05-05T04:17:03.931Z,101421.47
2023-05-05T04:19:33.163Z,101432.44
2023-05-05T04:22:00.006Z,101433.97
2023-05-05T04:24:26.959Z,101438.78
2023-05-05T04:26:53.391Z,101439.28
2023-05-05T04:29:19.779Z,101443.09
2023-05-05T04:31:46.266Z,101445.81
2023-05-05T04:34:12.683Z,101448.50
2023-05-05T04:36:38.994Z,101446.53
2023-05-05T04:39:06.885Z,101450.97
2023-05-05T04:41:33.384Z,101449.78
2023-05-05T04:44:00.487Z,101452.44
2023-05-05T04:46:26.829Z,101458.06
2023-05-05T04:48:53.213Z,101466.84
2023-05-05T04:51:19.669Z,101464.41
2023-05-05T04:53:46.422Z,101455.94
2023-05-05T04:56:12.714Z,101462.28
2023-05-05T04:58:38.975Z,101462.06
2023-05-05T05:01:05.288Z,101467.53
2023-05-05T05:03:31.986Z,101472.97
2023-05-05T05:05:58.475Z,101476.44
2023-05-05T05:08:24.815Z,101475.25
2023-05-05T05:10:51.300Z,101478.66
2023-05-05T05:13:17.742Z,101477.25
2023-05-05T05:15:45.063Z,101482.88
2023-05-05T05:18:11.485Z,101481.53
2023-05-05T05:20:37.791Z,101487.88
2023-05-05T05:23:04.470Z,101495.47
2023-05-05T05:25:30.848Z,101488.09
2023-05-05T05:28:08.783Z,101494.88
2023-05-05T05:30:36.631Z,101493.50
2023-05-05T05:33:02.987Z,101494.78
2023-05-05T05:35:29.273Z,101495.69
2023-05-05T05:37:55.761Z,101497.19
2023-05-05T05:40:22.056Z,101496.75
2023-05-05T05:42:48.354Z,101491.13
2023-05-05T05:45:14.704Z,101497.56
2023-05-05T05:47:41.049Z,101474.94
2023-05-05T05:50:07.841Z,101495.13
2023-05-05T05:52:36.080Z,101490.63
2023-05-05T05:55:02.573Z,101495.59
2023-05-05T05:57:28.993Z,101491.47
2023-05-05T05:59:55.387Z,101491.22
2023-05-05T06:02:21.837Z,101493.13
2023-05-05T06:04:48.160Z,101500.91
2023-05-05T06:07:14.555Z,101515.25
2023-05-05T06:09:41.380Z,101502.47
2023-05-05T06:12:07.663Z,101505.28
2023-05-05T06:14:33.976Z,101508.38
2023-05-05T06:17:00.266Z,101500.94
2023-05-05T06:19:26.559Z,101518.09
2023-05-05T06:21:52.977Z,101504.94
2023-05-05T06:24:19.258Z,101516.72
2023-05-05T06:26:45.745Z,101518.91
2023-05-05T06:29:12.504Z,101512.03
2023-05-05T06:31:38.909Z,101499.50
2023-05-05T06:34:05.241Z,101506.56
2023-05-05T06:36:32.290Z,101493.47
2023-05-05T06:38:58.716Z,101509.38
2023-05-05T06:41:25.072Z,101525.34
2023-05-05T06:43:51.472Z,101524.88
2023-05-05T06:46:17.817Z,101526.78
2023-05-05T06:48:44.147Z,101530.81
2023-05-05T06:51:10.474Z,101536.94
2023-05-05T06:53:36.745Z,101527.69
2023-05-05T06:56:03.101Z,101535.09
2023-05-05T06:58:29.435Z,101535.31
2023-05-05T07:00:55.925Z,101531.31
2023-05-05T07:03:22.308Z,101529.22
2023-05-05T07:05:48.709Z,101528.47
2023-05-05T07:08:15.245Z,101531.56
2023-05-05T07:10:41.815Z,101555.97
2023-05-05T07:13:08.353Z,101550.53
2023-05-05T07:15:34.832Z,101548.72
2023-05-05T07:18:01.259Z,101560.78
2023-05-05T07:20:27.699Z,101553.31
2023-05-05T07:22:54.081Z,101552.47
2023-05-05T07:25:20.848Z,101554.56
2023-05-05T07:27:47.206Z,101562.06
2023-05-05T07:30:16.530Z,101567.72
2023-05-05T07:32:44.694Z,101568.81
2023-05-05T07:35:11.300Z,101581.69
2023-05-05T07:37:37.634Z,101588.50
2023-05-05T07:40:04.149Z,101584.22
2023-05-05T07:42:30.620Z,101582.44
2023-05-05T07:44:56.964Z,101575.28
2023-05-05T07:47:23.366Z,101575.78
2023-05-05T07:49:49.779Z,101587.56
2023-05-05T07:52:16.107Z,101584.56
2023-05-05T07:54:42.536Z,101585.31
2023-05-05T07:57:08.881Z,101571.19
2023-05-05T07:59:35.276Z,101575.28
2023-05-05T08:02:01.593Z,101579.03
2023-05-05T08:04:28.008Z,101569.75
2023-05-05T08:06:54.378Z,101562.53
2023-05-05T08:09:20.714Z,101550.38
2023-05-05T08:11:47.052Z,101546.44
2023-05-05T08:14:13.480Z,101554.28
2023-05-05T08:16:39.784Z,101572.19
2023-05-05T08:19:14.582Z,101561.47
2023-05-05T08:21:47.788Z,101547.38
2023-05-05T08:24:14.167Z,101559.97
2023-05-05T08:26:40.708Z,101553.38
2023-05-05T08:29:07.157Z,101572.91
2023-05-05T08:31:34.446Z,101568.13
2023-05-05T08:34:00.850Z,101570.53
2023-05-05T08:36:27.256Z,101573.28
2023-05-05T08:38:53.588Z,101576.25
2023-05-05T08:41:19.960Z,101564.63
2023-05-05T08:43:47.189Z,101564.31
2023-05-05T08:46:13.660Z,101571.03
2023-05-05T08:48:43.227Z,101563.28
2023-05-05T08:51:10.987Z,101561.00
2023-05-05T08:53:56.172Z,101550.25
2023-05-05T08:56:25.748Z,101552.88
2023-05-05T08:58:52.321Z,101563.09
2023-05-05T09:01:18.666Z,101565.22
2023-05-05T09:03:46.198Z,101560.88
2023-05-05T09:06:12.745Z,101552.50
2023-05-05T09:08:39.157Z,101551.97
2023-05-05T09:11:05.983Z,101564.31
2023-05-05T09:13:32.627Z,101559.16
2023-05-05T09:15:59.417Z,101561.78
2023-05-05T09:18:26.048Z,101560.25
2023-05-05T09:20:52.427Z,101553.84
2023-05-05T09:23:19.751Z,101552.09
2023-05-05T09:25:47.079Z,101559.97
2023-05-05T09:28:14.323Z,101547.84
2023-05-05T09:30:42.353Z,101545.53
2023-05-05T09:33:09.135Z,101571.09
2023-05-05T09:36:08.120Z,101570.06
2023-05-05T09:38:34.977Z,101574.38
2023-05-05T09:41:01.509Z,101573.72
2023-05-05T09:43:27.924Z,101579.63
2023-05-05T09:46:05.516Z,101577.38
2023-05-05T09:48:32.297Z,101573.56
2023-05-05T09:50:59.318Z,101580.34
2023-05-05T09:53:26.521Z,101595.00
2023-05-05T09:55:54.165Z,101593.47
2023-05-05T09:58:21.270Z,101583.22
2023-05-05T10:00:47.972Z,101586.16
2023-05-05T10:03:14.513Z,101595.59
2023-05-05T10:05:48.476Z,101586.19
2023-05-05T10:08:14.823Z,101595.38
2023-05-05T10:10:46.403Z,101580.22
2023-05-05T10:13:12.880Z,101588.59
2023-05-05T10:15:41.781Z,101582.84
2023-05-05T10:18:08.686Z,101572.28
2023-05-05T10:20:36.347Z,101579.88
2023-05-05T10:23:05.481Z,101582.88
2023-05-05T10:25:35.163Z,101580.38
2023-05-05T10:28:04.776Z,101542.00
2023-05-05T10:30:32.019Z,101564.84
2023-05-05T10:33:30.397Z,101561.13
2023-05-05T10:36:00.880Z,101553.25
2023-05-05T10:38:28.894Z,101538.19
2023-05-05T10:40:56.365Z,101551.00
2023-05-05T10:43:23.326Z,101548.78
2023-05-05T10:45:49.908Z,101543.50
2023-05-05T10:48:21.054Z,101546.94
2023-05-05T10:50:54.782Z,101542.53
2023-05-05T10:53:26.044Z,101531.56
2023-05-05T10:56:01.605Z,101537.88
2023-05-05T10:58:35.054Z,101541.47
2023-05-05T11:01:08.048Z,101529.81
2023-05-05T11:03:34.546Z,101543.09
2023-05-05T11:06:03.882Z,101518.47
2023-05-05T11:08:36.734Z,101528.00
2023-05-05T11:11:03.307Z,101527.72
2023-05-05T11:13:29.734Z,101520.09
2023-05-05T11:15:57.390Z,101505.56
2023-05-05T11:18:36.105Z,101514.13
2023-05-05T11:21:03.904Z,101509.41
2023-05-05T11:23:30.535Z,101487.91
2023-05-05T11:25:57.673Z,101495.81
2023-05-05T11:28:25.519Z,101499.84
2023-05-05T11:30:54.926Z,101497.94
2023-05-05T11:33:25.674Z,101493.53
2023-05-05T11:36:03.422Z,101505.16
2023-05-05T11:38:37.799Z,101506.16
2023-05-05T11:41:17.209Z,101507.06
2023-05-05T11:43:43.563Z,101498.09
2023-05-05T11:46:19.425Z,101495.97
2023-05-05T11:48:49.566Z,101497.63
2023-05-05T11:51:16.980Z,101500.94
2023-05-05T11:53:44.273Z,101506.56
2023-05-05T11:56:11.312Z,101491.47
2023-05-05T11:58:37.885Z,101487.13
2023-05-05T12:01:05.719Z,101500.66
2023-05-05T12:03:38.953Z,101491.53
2023-05-05T12:06:06.327Z,101495.53
2023-05-05T12:08:36.476Z,101479.50
2023-05-05T12:11:09.953Z,101471.50
2023-05-05T12:13:36.401Z,101472.69
2023-05-05T12:16:09.678Z,101474.75
2023-05-05T12:18:36.180Z,101455.06
2023-05-05T12:21:12.416Z,101461.34
2023-05-05T12:23:39.130Z,101457.25
2023-05-05T12:26:05.458Z,101455.59
2023-05-05T12:28:46.316Z,101447.94
2023-05-05T12:31:12.779Z,101441.94
2023-05-05T12:33:39.737Z,101433.94
2023-05-05T12:36:07.186Z,101427.94
2023-05-05T12:38:33.504Z,101447.63
2023-05-05T12:40:59.804Z,101432.00
2023-05-05T12:43:28.333Z,101443.59
2023-05-05T12:46:00.547Z,101442.88
2023-05-05T12:48:26.988Z,101438.75
2023-05-05T12:50:53.303Z,101432.88
2023-05-05T12:53:23.953Z,101431.56
2023-05-05T12:55:51.147Z,101420.28
2023-05-05T12:58:17.592Z,101428.75
2023-05-05T13:00:44.015Z,101422.66
2023-05-05T13:03:19.843Z,101419.31
2023-05-05T13:05:46.383Z,101399.63
2023-05-05T13:08:12.689Z,101409.50
2023-05-05T13:10:41.423Z,101412.56
2023-05-05T13:13:08.717Z,101406.69
2023-05-05T13:15:35.237Z,101404.53
2023-05-05T13:18:02.512Z,101395.59
2023-05-05T13:20:28.987Z,101398.72
2023-05-05T13:22:55.415Z,101399.53
2023-05-05T13:25:21.721Z,101383.19
2023-05-05T13:27:48.039Z,101391.06
2023-05-05T13:30:14.535Z,101381.56
2023-05-05T13:32:41.278Z,101378.53
2023-05-05T13:35:08.214Z,101376.03
2023-05-05T13:37:34.745Z,101372.72
2023-05-05T13:40:01.292Z,101387.34
2023-05-05T13:42:27.661Z,101372.38
2023-05-05T13:44:53.991Z,101357.28
2023-05-05T13:47:20.730Z,101366.19
2023-05-05T13:49:47.221Z,101373.78
2023-05-05T13:52:13.617Z,101362.66
2023-05-05T13:54:40.186Z,101363.53
2023-05-05T13:57:07.907Z,101374.72
2023-05-05T13:59:34.248Z,101362.88
2023-05-05T14:02:01.172Z,101371.22
2023-05-05T14:04:27.592Z,101360.94
2023-05-05T14:06:54.524Z,101357.34
2023-05-05T14:09:21.056Z,101357.38
2023-05-05T14:11:47.363Z,101358.59
2023-05-05T14:14:13.722Z,101334.63
2023-05-05T14:16:40.212Z,101344.63
2023-05-05T14:19:06.528Z,101337.09
2023-05-05T14:21:33.029Z,101350.66
2023-05-05T14:23:59.523Z,101336.25
2023-05-05T14:26:25.913Z,101338.97
2023-05-05T14:28:52.262Z,101320.97
2023-05-05T14:31:18.640Z,101324.28
2023-05-05T14:33:44.942Z,101337.09
2023-05-05T14:36:11.344Z,101320.66
2023-05-05T14:38:37.714Z,101319.28
2023-05-05T14:41:04.197Z,101323.41
2023-05-05T14:43:30.525Z,101312.94
2023-05-05T14:45:58.973Z,101303.03
2023-05-05T14:48:25.397Z,101312.59
2023-05-05T14:50:51.720Z,101306.91
2023-05-05T14:53:18.957Z,101318.88
2023-05-05T14:55:45.371Z,101325.34
2023-05-05T14:58:11.658Z,101317.81
2023-05-05T15:00:38.026Z,101322.53
2023-05-05T15:03:04.438Z,101313.41
2023-05-05T15:05:30.848Z,101322.03
2023-05-05T15:07:57.250Z,101297.56
2023-05-05T15:10:23.645Z,101310.38
2023-05-05T15:12:50.970Z,101306.44
2023-05-05T15:15:17.795Z,101314.09
2023-05-05T15:17:44.139Z,101310.06
2023-05-05T15:20:10.774Z,101297.53
2023-05-05T15:22:37.129Z,101304.88
2023-05-05T15:25:03.571Z,101288.09
2023-05-05T15:27:31.565Z,101293.53
2023-05-05T15:29:57.900Z,101289.16
2023-05-05T15:32:24.238Z,101286.22
2023-05-05T15:34:50.729Z,101283.75
2023-05-05T15:37:17.161Z,101285.00
2023-05-05T15:39:43.600Z,101287.97
2023-05-05T15:42:10.213Z,101303.91
2023-05-05T15:44:36.581Z,101282.97
2023-05-05T15:47:03.011Z,101298.56
2023-05-05T15:49:29.339Z,101304.13
2023-05-05T15:51:55.845Z,101302.53
2023-05-05T15:54:22.256Z,101306.16
2023-05-05T15:56:48.651Z,101297.03
2023-05-05T15:59:14.985Z,101302.63
2023-05-05T16:01:41.390Z,101288.28
2023-05-05T16:04:07.802Z,101296.66
2023-05-05T16:06:34.216Z,101299.03
2023-05-05T16:09:00.637Z,101299.06
2023-05-05T16:11:27.194Z,101306.59
2023-05-05T16:13:53.651Z,101307.38
2023-05-05T16:16:20.030Z,101297.75
2023-05-05T16:18:46.398Z,101296.59
2023-05-05T16:21:12.875Z,101296.19
2023-05-05T16:23:39.297Z,101297.38
2023-05-05T16:26:05.650Z,101283.88
2023-05-05T16:28:34.185Z,101268.28
2023-05-05T16:31:00.983Z,101277.75
2023-05-05T16:33:27.788Z,101271.72
2023-05-05T16:35:54.138Z,101275.84
2023-05-05T16:38:20.681Z,101245.94
2023-05-05T16:40:47.004Z,101258.59
2023-05-05T16:43:13.352Z,101250.69
2023-05-05T16:45:39.678Z,101248.94
2023-05-05T16:48:08.904Z,101240.47
2023-05-05T16:50:35.863Z,101241.16
2023-05-05T16:53:02.204Z,101253.41
2023-05-05T16:55:28.594Z,101245.00
2023-05-05T16:57:54.979Z,101252.25
2023-05-05T17:00:21.386Z,101241.03
2023-05-05T17:02:47.747Z,101247.41
2023-05-05T17:05:14.151Z,101220.22
2023-05-05T17:07:40.610Z,101227.31
2023-05-05T17:10:07.361Z,101224.81
2023-05-05T17:12:33.683Z,101210.38
2023-05-05T17:15:00.133Z,101230.63
2023-05-05T17:17:26.710Z,101222.00
2023-05-05T17:19:53.106Z,101242.34
2023-05-05T17:22:19.471Z,101203.28
2023-05-05T17:24:45.763Z,101213.13
2023-05-05T17:27:12.731Z,101217.81
2023-05-05T17:29:41.059Z,101218.66
2023-05-05T17:32:07.873Z,101217.13
2023-05-05T17:34:34.251Z,101223.81
2023-05-05T17:37:00.745Z,101207.19
2023-05-05T17:39:27.130Z,101223.19
2023-05-05T17:41:53.472Z,101221.97
2023-05-05T17:44:19.844Z,101216.34
2023-05-05T17:46:46.201Z,101230.78
2023-05-05T17:49:12.531Z,101233.31
2023-05-05T17:51:38.843Z,101229.31
2023-05-05T17:54:05.334Z,101230.97
2023-05-05T17:56:31.716Z,101246.03
2023-05-05T17:58:58.107Z,101247.16
2023-05-05T18:01:25.109Z,101244.84
2023-05-05T18:03:51.581Z,101245.22
2023-05-05T18:06:18.218Z,101249.97
2023-05-05T18:08:44.789Z,101250.41
2023-05-05T18:11:11.218Z,101253.66
2023-05-05T18:13:38.719Z,101247.69
2023-05-05T18:16:05.220Z,101243.63
2023-05-05T18:18:31.619Z,101256.44
2023-05-05T18:20:58.007Z,101255.47
2023-05-05T18:23:24.324Z,101261.06
2023-05-05T18:25:51.087Z,101273.69
2023-05-05T18:28:17.452Z,101270.06
2023-05-05T18:30:43.810Z,101272.31
2023-05-05T18:33:10.534Z,101280.94
2023-05-05T18:35:37.119Z,101277.59
2023-05-05T18:38:03.672Z,101288.41
2023-05-05T18:40:30.019Z,101265.06
2023-05-05T18:42:56.875Z,101286.28
2023-05-05T18:45:23.240Z,101283.19
2023-05-05T18:47:49.990Z,101274.69
2023-05-05T18:50:16.758Z,101266.72
2023-05-05T18:52:43.094Z,101258.16
2023-05-05T18:55:09.786Z,101272.03
2023-05-05T18:57:36.388Z,101256.63
2023-05-05T19:00:02.822Z,101277.41
2023-05-05T19:02:29.258Z,101286.91
2023-05-05T19:04:56.011Z,101277.19
2023-05-05T19:07:34.333Z,101289.56
2023-05-05T19:10:03.477Z,101270.00
2023-05-05T19:12:29.822Z,101279.91
2023-05-05T19:14:56.177Z,101271.34
2023-05-05T19:17:22.703Z,101279.44
2023-05-05T19:19:49.079Z,101261.84
2023-05-05T19:22:17.375Z,101261.63
2023-05-05T19:24:43.796Z,101255.63
2023-05-05T19:27:15.502Z,101279.25
2023-05-05T19:29:42.941Z,101268.13
2023-05-05T19:32:09.514Z,101270.31
2023-05-05T19:34:35.907Z,101263.47
2023-05-05T19:37:02.290Z,101252.84
2023-05-05T19:39:28.658Z,101254.72
2023-05-05T19:41:55.079Z,101252.16
2023-05-05T19:44:22.736Z,101243.09
2023-05-05T19:46:49.136Z,101237.88
2023-05-05T19:49:15.560Z,101244.47
2023-05-05T19:51:42.680Z,101227.75
2023-05-05T19:54:09.094Z,101254.28
2023-05-05T19:56:35.458Z,101256.03
2023-05-05T19:59:02.415Z,101260.50
2023-05-05T20:01:29.153Z,101258.00
2023-05-05T20:03:56.475Z,101265.78
2023-05-05T20:06:23.038Z,101282.25
2023-05-05T20:08:49.395Z,101278.78
2023-05-05T20:11:16.144Z,101280.28
2023-05-05T20:13:42.981Z,101294.44
2023-05-05T20:16:09.816Z,101295.69
2023-05-05T20:18:36.202Z,101292.22
2023-05-05T20:21:02.571Z,101305.56
2023-05-05T20:23:28.931Z,101304.00
2023-05-05T20:25:56.074Z,101304.75
2023-05-05T20:28:22.728Z,101306.25
2023-05-05T20:30:49.084Z,101300.28
2023-05-05T20:33:15.560Z,101293.88
2023-05-05T20:35:41.924Z,101285.69
2023-05-05T20:38:09.706Z,101270.63
2023-05-05T20:40:36.096Z,101275.06
2023-05-05T20:43:02.485Z,101266.66
2023-05-05T20:45:31.596Z,101266.28
2023-05-05T20:47:59.059Z,101265.34
2023-05-05T20:50:25.653Z,101266.22
2023-05-05T20:52:52.017Z,101258.25
2023-05-05T20:55:18.485Z,101256.72
2023-05-05T20:57:44.793Z,101269.47
2023-05-05T21:00:11.473Z,101271.47
2023-05-05T21:02:38.166Z,101279.66
2023-05-05T21:05:05.161Z,101274.50
2023-05-05T21:07:34.080Z,101272.63
2023-05-05T21:10:01.088Z,101259.00
2023-05-05T21:12:28.449Z,101269.75
2023-05-05T21:14:56.879Z,101265.69
2023-05-05T21:17:23.271Z,101255.81
2023-05-05T21:19:49.568Z,101259.84
2023-05-05T21:22:15.866Z,101259.75
2023-05-05T21:24:42.166Z,101224.84
2023-05-05T21:27:08.511Z,101231.72
2023-05-05T21:29:37.631Z,101236.88
2023-05-05T21:32:08.014Z,101239.34
2023-05-05T21:34:34.660Z,101258.50
2023-05-05T21:37:00.988Z,101261.22
2023-05-05T21:39:28.086Z,101259.72
2023-05-05T21:41:54.401Z,101248.28
2023-05-05T21:44:21.040Z,101259.94
2023-05-05T21:46:47.483Z,101252.03
2023-05-05T21:49:14.539Z,101245.50
2023-05-05T21:51:41.187Z,101246.50
2023-05-05T21:54:07.476Z,101258.03
2023-05-05T21:56:34.314Z,101249.09
2023-05-05T21:59:01.032Z,101253.91
2023-05-05T22:01:27.440Z,101258.53
2023-05-05T22:03:54.248Z,101252.91
2023-05-05T22:06:21.123Z,101258.50
2023-05-05T22:08:47.851Z,101254.44
2023-05-05T22:11:14.181Z,101255.97
2023-05-05T22:13:40.878Z,101260.25
2023-05-05T22:16:08.066Z,101255.22
2023-05-05T22:18:34.757Z,101255.97
2023-05-05T22:21:01.698Z,101266.56
2023-05-05T22:23:28.587Z,101267.66
2023-05-05T22:25:55.462Z,101263.44
2023-05-05T22:28:21.879Z,101264.69
2023-05-05T22:30:48.386Z,101261.63
2023-05-05T22:33:14.996Z,101258.63
2023-05-05T22:35:41.336Z,101256.41
2023-05-05T22:38:07.763Z,101253.53
2023-05-05T22:40:34.299Z,101250.50
2023-05-05T22:43:00.647Z,101248.31
2023-05-05T22:45:27.163Z,101250.13
2023-05-05T22:47:53.823Z,101248.81
2023-05-05T22:50:20.362Z,101239.94
2023-05-05T22:52:46.901Z,101249.63
2023-05-05T22:55:14.573Z,101256.38
2023-05-05T22:57:41.307Z,101251.00
2023-05-05T23:00:10.711Z,101256.59
2023-05-05T23:02:37.660Z,101246.91
2023-05-05T23:05:04.209Z,101248.00
2023-05-05T23:07:30.648Z,101240.25
2023-05-05T23:09:56.921Z,101239.38
2023-05-05T23:12:23.253Z,101241.22
2023-05-05T23:14:49.924Z,101241.31
2023-05-05T23:17:16.355Z,101232.56
2023-05-05T23:19:42.694Z,101231.91
2023-05-05T23:22:09.003Z,101228.00
2023-05-05T23:24:35.321Z,101228.19
2023-05-05T23:27:04.533Z,101229.75
2023-05-05T23:29:30.955Z,101233.47
2023-05-05T23:31:57.440Z,101226.28
2023-05-05T23:34:23.999Z,101228.19
2023-05-05T23:36:50.443Z,101218.75
2023-05-05T23:39:16.758Z,101211.66
2023-05-05T23:41:43.111Z,101212.00
2023-05-05T23:44:09.394Z,101211.91
2023-05-05T23:46:35.720Z,101207.53
2023-05-05T23:49:02.130Z,101200.53
2023-05-05T23:51:28.442Z,101198.91
2023-05-05T23:53:56.223Z,101194.94
2023-05-05T23:56:23.023Z,101196.16
2023-05-05T23:58:49.366Z,101195.72
